Time;durP1;ratioP1;P1;durP2;ratioP2;P2;SDS_P1;SDS_P2;PMS_P1;PMS_P2;Temp;Humidity;BMP_temperature;BMP_pressure;BME280_temperature;BME280_humidity;BME280_pressure;Samples;Min_cycle;Max_cycle;Signal;HPM_P1;HPM_P2
2022/07/07 00:01:40;;;;;;;9.07;6.00;;;;;;;24.78;100.00;100770.88;4956162;29;20023;-76
2022/07/07 00:04:26;;;;;;;8.15;5.95;;;;;;;24.78;100.00;100776.22;4955934;29;20098;-76
2022/07/07 00:07:12;;;;;;;7.38;6.10;;;;;;;24.99;100.00;100778.16;4943018;28;20070;-75
2022/07/07 00:09:58;;;;;;;8.10;6.18;;;;;;;24.77;100.00;100782.56;4956197;28;20023;-76
2022/07/07 00:12:44;;;;;;;6.60;6.00;;;;;;;24.62;100.00;100784.56;4941900;29;20035;-74
2022/07/07 00:15:30;;;;;;;9.20;6.28;;;;;;;24.54;100.00;100778.03;4956002;29;20072;-75
2022/07/07 00:18:16;;;;;;;6.75;6.05;;;;;;;25.04;100.00;100783.19;4956291;28;20102;-76
2022/07/07 00:21:02;;;;;;;7.60;6.32;;;;;;;24.95;100.00;100784.72;4944193;28;20349;-76
2022/07/07 00:23:48;;;;;;;6.63;5.95;;;;;;;25.13;100.00;100788.69;4959242;29;20039;-75
2022/07/07 00:26:34;;;;;;;7.05;6.25;;;;;;;24.89;100.00;100776.28;4959339;28;20046;-77
2022/07/07 00:29:19;;;;;;;7.18;5.70;;;;;;;24.71;100.00;100777.69;4959171;28;20138;-76
2022/07/07 00:32:05;;;;;;;6.93;5.45;;;;;;;25.12;100.00;100772.72;4959716;28;20067;-77
2022/07/07 00:34:51;;;;;;;6.28;5.68;;;;;;;25.22;100.00;100779.06;4959344;29;20023;-76
2022/07/07 00:37:37;;;;;;;6.53;5.70;;;;;;;25.05;100.00;100780.38;4959542;29;20114;-75
2022/07/07 00:40:23;;;;;;;7.05;6.35;;;;;;;24.94;100.00;100785.69;4946102;28;20070;-77
2022/07/07 00:43:09;;;;;;;6.65;5.80;;;;;;;25.28;100.00;100792.91;4959515;29;20119;-74
2022/07/07 00:45:54;;;;;;;8.02;6.53;;;;;;;24.96;100.00;100796.31;4959059;28;20035;-73
2022/07/07 00:48:41;;;;;;;7.80;6.03;;;;;;;25.22;100.00;100796.03;4958703;29;20031;-73
2022/07/07 00:51:27;;;;;;;6.38;5.57;;;;;;;24.82;100.00;100801.84;4958448;28;20043;-72
2022/07/07 00:54:13;;;;;;;8.82;5.80;;;;;;;25.08;100.00;100804.25;4959028;28;20449;-72
2022/07/07 00:56:59;;;;;;;8.15;6.07;;;;;;;24.67;100.00;100800.31;4958829;29;20059;-72
2022/07/07 00:59:45;;;;;;;6.20;5.43;;;;;;;24.95;100.00;100802.66;4958562;29;20032;-73
2022/07/07 01:02:32;;;;;;;6.85;5.65;;;;;;;25.38;100.00;100798.41;4958632;29;20042;-73
2022/07/07 01:05:18;;;;;;;6.60;5.78;;;;;;;24.94;100.00;100800.91;4958197;29;20035;-74
2022/07/07 01:08:04;;;;;;;6.47;5.55;;;;;;;25.10;100.00;100796.97;4958588;28;20035;-74
2022/07/07 01:10:50;;;;;;;6.25;5.60;;;;;;;25.25;100.00;100800.31;4958198;29;20035;-72
2022/07/07 01:13:39;;;;;;;7.82;5.90;;;;;;;24.98;100.00;100799.72;4958654;29;20031;-72
2022/07/07 01:16:25;;;;;;;7.32;5.72;;;;;;;25.07;100.00;100794.50;4958868;29;20055;-72
2022/07/07 01:19:11;;;;;;;6.10;5.50;;;;;;;25.01;100.00;100796.81;4958472;29;20027;-73
2022/07/07 01:22:17;;;;;;;6.55;5.82;;;;;;;24.48;100.00;100798.09;4958465;29;20042;-73
2022/07/07 01:25:04;;;;;;;6.75;5.28;;;;;;;25.07;100.00;100793.69;4958559;28;20035;-73
2022/07/07 01:27:51;;;;;;;9.15;6.03;;;;;;;25.21;100.00;100788.97;4958317;28;20114;-72
2022/07/07 01:30:36;;;;;;;5.90;5.40;;;;;;;25.00;100.00;100797.78;4957912;29;20039;-72
2022/07/07 01:33:22;;;;;;;6.32;5.72;;;;;;;25.17;100.00;100798.22;4958138;28;20023;-72
2022/07/07 01:36:12;;;;;;;6.10;5.60;;;;;;;25.06;100.00;100800.00;4958033;28;20445;-71
2022/07/07 01:38:58;;;;;;;8.02;5.55;;;;;;;24.85;100.00;100801.63;4958361;28;20038;-72
2022/07/07 01:41:44;;;;;;;6.30;5.35;;;;;;;25.06;100.00;100805.34;4958162;28;20035;-72
2022/07/07 01:44:34;;;;;;;6.47;5.88;;;;;;;24.96;100.00;100804.34;4957857;29;20027;-73
2022/07/07 01:47:22;;;;;;;6.70;6.00;;;;;;;24.97;100.00;100801.56;4957616;29;20458;-73
2022/07/07 01:50:09;;;;;;;6.72;6.05;;;;;;;24.39;100.00;100808.63;4944353;28;20114;-71
2022/07/07 01:52:54;;;;;;;6.07;5.47;;;;;;;24.86;100.00;100808.69;4957909;29;20059;-72
2022/07/07 01:55:40;;;;;;;7.85;6.03;;;;;;;24.69;100.00;100809.09;4957654;29;20479;-73
2022/07/07 01:58:26;;;;;;;6.22;5.53;;;;;;;24.96;100.00;100809.72;4957793;29;20035;-72
2022/07/07 02:01:12;;;;;;;6.90;5.78;;;;;;;24.70;100.00;100800.06;4957527;28;20059;-72
2022/07/07 02:03:58;;;;;;;8.90;5.95;;;;;;;24.65;100.00;100804.91;4944759;28;20038;-72
2022/07/07 02:06:43;;;;;;;6.55;5.65;;;;;;;24.99;100.00;100807.66;4957162;29;20476;-72
2022/07/07 02:09:30;;;;;;;7.15;6.10;;;;;;;24.92;100.00;100818.97;4957183;28;20031;-71
2022/07/07 02:12:15;;;;;;;7.32;5.88;;;;;;;24.64;100.00;100822.84;4957377;29;20038;-71
2022/07/07 02:15:01;;;;;;;6.50;5.90;;;;;;;24.86;100.00;100822.06;4957134;29;20438;-71
2022/07/07 02:17:47;;;;;;;8.82;6.07;;;;;;;24.75;100.00;100830.91;4957606;28;20031;-72
2022/07/07 02:20:33;;;;;;;8.05;5.88;;;;;;;24.69;100.00;100828.72;4957233;29;20035;-71
2022/07/07 02:23:19;;;;;;;8.30;5.70;;;;;;;24.61;100.00;100831.09;4943928;28;20046;-77
2022/07/07 02:26:05;;;;;;;8.60;6.22;;;;;;;24.76;100.00;100826.44;4958331;29;20178;-78
2022/07/07 02:28:51;;;;;;;7.57;6.68;;;;;;;24.58;100.00;100841.13;4958266;29;20468;-78
2022/07/07 02:31:37;;;;;;;9.63;6.57;;;;;;;24.34;100.00;100832.22;4959464;29;20497;-78
2022/07/07 02:34:23;;;;;;;7.78;6.53;;;;;;;24.40;100.00;100842.47;4957735;28;20369;-78
2022/07/07 02:37:09;;;;;;;8.60;7.00;;;;;;;24.80;100.00;100852.03;4943792;29;20365;-78
2022/07/07 02:39:54;;;;;;;8.98;6.32;;;;;;;24.57;100.00;100855.50;4957517;29;20023;-80
2022/07/07 02:42:40;;;;;;;11.10;6.90;;;;;;;24.60;100.00;100860.66;4956736;28;20034;-78
2022/07/07 02:45:26;;;;;;;8.85;7.07;;;;;;;24.36;100.00;100874.00;4950034;28;20039;-77
2022/07/07 02:48:15;;;;;;;10.00;7.20;;;;;;;24.29;100.00;100869.19;4957539;28;20034;-78
2022/07/07 02:51:01;;;;;;;8.18;6.60;;;;;;;24.81;100.00;100861.78;4963963;29;20054;-79
2022/07/07 02:53:47;;;;;;;11.60;7.18;;;;;;;24.74;100.00;100866.75;4957985;29;20126;-77
2022/07/07 02:56:33;;;;;;;8.20;7.40;;;;;;;24.72;100.00;100870.50;4957837;28;20037;-79
2022/07/07 02:59:18;;;;;;;8.50;7.20;;;;;;;24.46;100.00;100877.72;4956928;28;20031;-79
2022/07/07 03:02:04;;;;;;;11.30;7.45;;;;;;;24.68;100.00;100874.38;4957002;28;20319;-78
2022/07/07 03:04:50;;;;;;;8.80;7.90;;;;;;;24.52;100.00;100879.09;4956498;29;20520;-79
2022/07/07 03:07:39;;;;;;;10.52;8.07;;;;;;;24.53;100.00;100886.16;4956592;29;20035;-78
2022/07/07 03:10:25;;;;;;;12.38;7.68;;;;;;;24.60;100.00;100887.44;4957013;28;20035;-78
2022/07/07 03:13:11;;;;;;;8.25;7.00;;;;;;;24.34;100.00;100905.38;4961695;28;20023;-78
2022/07/07 03:15:57;;;;;;;9.27;7.35;;;;;;;24.45;100.00;100915.31;4961262;29;20114;-78
2022/07/07 03:18:43;;;;;;;8.85;7.95;;;;;;;24.57;100.00;100917.13;4956352;29;20113;-80
2022/07/07 03:21:28;;;;;;;9.52;7.32;;;;;;;24.58;100.00;100922.38;4956315;29;20035;-79
2022/07/07 03:24:14;;;;;;;9.52;7.25;;;;;;;23.91;100.00;100925.41;4956419;29;20035;-79
2022/07/07 03:27:00;;;;;;;7.72;6.93;;;;;;;24.21;100.00;100927.78;4956783;29;20023;-79
2022/07/07 03:29:46;;;;;;;7.90;7.10;;;;;;;24.01;100.00;100926.50;4956739;28;20046;-78
2022/07/07 03:32:32;;;;;;;8.32;6.72;;;;;;;24.23;100.00;100936.56;4955678;29;20114;-79
2022/07/07 03:35:18;;;;;;;7.38;6.18;;;;;;;23.97;100.00;100929.47;4955934;29;20023;-80
2022/07/07 03:38:05;;;;;;;8.13;6.20;;;;;;;23.90;100.00;100923.66;4956265;29;20027;-78
2022/07/07 03:40:50;;;;;;;8.80;5.93;;;;;;;23.89;100.00;100927.31;4956078;29;20500;-78
2022/07/07 03:43:36;;;;;;;7.63;5.85;;;;;;;24.10;100.00;100931.22;4955937;29;20039;-79
2022/07/07 03:46:22;;;;;;;7.18;5.90;;;;;;;24.17;100.00;100927.16;4956498;29;20114;-79
2022/07/07 03:49:08;;;;;;;6.22;5.53;;;;;;;24.24;100.00;100919.53;4955939;28;20041;-78
2022/07/07 03:51:53;;;;;;;8.88;5.32;;;;;;;24.01;100.00;100929.19;4956555;28;20061;-79
2022/07/07 03:54:39;;;;;;;6.28;5.60;;;;;;;24.01;100.00;100923.81;4956402;28;20114;-80
2022/07/07 03:57:25;;;;;;;6.53;5.43;;;;;;;24.42;100.00;100918.22;4960171;29;20376;-79
2022/07/07 04:00:12;;;;;;;8.13;5.70;;;;;;;24.06;100.00;100920.84;4959844;29;20027;-80
2022/07/07 04:02:58;;;;;;;6.60;5.38;;;;;;;24.26;100.00;100917.63;4960174;29;20038;-80
2022/07/07 04:05:44;;;;;;;8.15;5.40;;;;;;;24.47;100.00;100918.78;4946346;28;20027;-80
2022/07/07 04:08:30;;;;;;;7.00;5.72;;;;;;;24.50;100.00;100923.88;4959892;28;20152;-80
2022/07/07 04:11:16;;;;;;;5.95;5.18;;;;;;;24.31;100.00;100927.03;4945869;28;20074;-80
2022/07/07 04:14:03;;;;;;;8.70;5.20;;;;;;;24.13;100.00;100941.72;4959603;29;20387;-80
2022/07/07 04:16:49;;;;;;;6.35;5.43;;;;;;;24.23;100.00;100925.88;4959845;28;20031;-79
2022/07/07 04:19:34;;;;;;;6.25;5.38;;;;;;;24.21;100.00;100934.00;4959681;28;20121;-79
2022/07/07 04:22:20;;;;;;;5.45;4.95;;;;;;;24.33;100.00;100926.91;4960271;28;20433;-80
2022/07/07 04:25:07;;;;;;;7.38;5.28;;;;;;;24.32;100.00;100926.06;4959255;29;20375;-80
2022/07/07 04:27:53;;;;;;;7.18;5.00;;;;;;;24.27;100.00;100938.91;4960485;28;20031;-81
2022/07/07 04:30:38;;;;;;;7.72;4.50;;;;;;;24.15;100.00;100938.94;4958605;29;20035;-81
2022/07/07 04:33:24;;;;;;;7.20;3.65;;;;;;;23.75;100.00;100945.28;4959367;29;20031;-79
2022/07/07 04:36:11;;;;;;;8.88;3.40;;;;;;;23.50;100.00;100939.88;4959102;29;20093;-81
2022/07/07 04:38:57;;;;;;;6.63;2.95;;;;;;;23.56;100.00;100944.81;4959637;28;20047;-81
2022/07/07 04:41:43;;;;;;;7.85;3.00;;;;;;;23.10;100.00;100949.63;4960197;28;20098;-81
2022/07/07 04:44:28;;;;;;;5.07;2.70;;;;;;;22.98;100.00;100961.13;4959407;28;20031;-80
2022/07/07 04:47:14;;;;;;;3.45;2.60;;;;;;;23.10;100.00;100968.34;4958672;28;20038;-81
2022/07/07 04:50:00;;;;;;;5.35;2.92;;;;;;;23.14;100.00;100973.41;4959449;29;20037;-81
2022/07/07 04:52:46;;;;;;;3.28;2.72;;;;;;;23.11;100.00;100986.13;4958853;29;20027;-81
2022/07/07 04:55:31;;;;;;;5.32;2.75;;;;;;;22.93;100.00;100976.59;4958797;29;20046;-81
2022/07/07 04:58:17;;;;;;;4.45;2.65;;;;;;;23.11;100.00;100991.47;4958921;28;20043;-80
2022/07/07 05:01:03;;;;;;;6.82;2.90;;;;;;;23.32;100.00;100993.59;4959207;29;20023;-81
2022/07/07 05:03:49;;;;;;;6.22;2.70;;;;;;;23.70;100.00;101006.28;4945281;28;20070;-81
2022/07/07 05:06:35;;;;;;;3.88;3.03;;;;;;;23.47;100.00;101002.47;4957525;28;20032;-81
2022/07/07 05:09:20;;;;;;;4.50;2.88;;;;;;;23.56;100.00;101001.84;4945869;28;20125;-81
2022/07/07 05:12:06;;;;;;;4.00;2.92;;;;;;;23.63;100.00;101005.84;4958164;29;20360;-80
2022/07/07 05:14:52;;;;;;;4.63;3.40;;;;;;;24.10;100.00;101008.84;4958799;28;20027;-81
2022/07/07 05:17:38;;;;;;;5.25;2.80;;;;;;;23.80;100.00;100996.66;4958166;29;20027;-80
2022/07/07 05:20:24;;;;;;;4.70;3.00;;;;;;;24.20;100.00;101001.06;4958579;29;20019;-81
2022/07/07 05:23:10;;;;;;;3.10;2.65;;;;;;;23.65;100.00;100997.69;4945158;28;20026;-79
2022/07/07 05:25:56;;;;;;;5.22;2.55;;;;;;;24.01;100.00;101001.47;4958792;28;20109;-80
2022/07/07 05:28:42;;;;;;;4.10;2.47;;;;;;;23.91;100.00;101007.50;4958388;28;20449;-80
2022/07/07 05:31:28;;;;;;;4.30;2.53;;;;;;;24.24;100.00;101014.13;4958173;29;20039;-80
2022/07/07 05:34:14;;;;;;;3.03;2.55;;;;;;;23.52;100.00;101015.50;4957739;28;20152;-80
2022/07/07 05:37:00;;;;;;;3.20;2.90;;;;;;;23.33;100.00;101018.53;4944940;28;20038;-80
2022/07/07 05:39:46;;;;;;;4.82;2.60;;;;;;;22.63;100.00;101034.66;4938926;29;20028;-80
2022/07/07 05:42:31;;;;;;;5.05;2.80;;;;;;;22.60;100.00;101046.38;4939068;29;20059;-79
2022/07/07 05:45:17;;;;;;;5.50;2.58;;;;;;;21.91;100.00;101060.41;4938902;29;20378;-81
2022/07/07 05:48:03;;;;;;;3.13;2.83;;;;;;;22.13;100.00;101061.72;4938665;29;20044;-80
2022/07/07 05:50:49;;;;;;;9.77;4.30;;;;;;;22.90;100.00;101065.84;4938773;29;20446;-79
2022/07/07 05:53:35;;;;;;;7.38;3.67;;;;;;;22.86;100.00;101079.47;4938746;28;20113;-80
2022/07/07 05:56:21;;;;;;;5.93;3.60;;;;;;;22.75;100.00;101081.97;4939157;29;20065;-80
2022/07/07 05:59:08;;;;;;;5.22;3.22;;;;;;;22.13;100.00;101085.72;4938615;29;20477;-81
2022/07/07 06:01:54;;;;;;;3.60;3.25;;;;;;;22.32;100.00;101099.72;4925829;29;20299;-81
2022/07/07 06:04:39;;;;;;;5.25;3.55;;;;;;;22.64;100.00;101097.78;4925756;28;20426;-81
2022/07/07 06:07:25;;;;;;;7.00;3.50;;;;;;;22.53;100.00;101105.59;4938012;29;20354;-80
2022/07/07 06:10:12;;;;;;;4.95;3.50;;;;;;;22.50;100.00;101106.63;4938376;29;20059;-80
2022/07/07 06:12:58;;;;;;;5.78;3.30;;;;;;;22.53;100.00;101126.97;4938026;29;20023;-81
2022/07/07 06:15:44;;;;;;;5.70;3.90;;;;;;;22.59;100.00;101130.13;4938951;29;20486;-80
2022/07/07 06:18:30;;;;;;;4.97;3.15;;;;;;;22.96;100.00;101131.41;4939585;29;20032;-80
2022/07/07 06:21:15;;;;;;;5.78;3.40;;;;;;;22.95;100.00;101133.22;4938931;29;20365;-81
2022/07/07 06:24:01;;;;;;;6.78;3.67;;;;;;;22.99;100.00;101141.94;4938758;29;20031;-80
2022/07/07 06:26:47;;;;;;;13.93;4.97;;;;;;;23.04;100.00;101135.34;4940881;29;20028;-80
2022/07/07 06:29:33;;;;;;;12.98;4.45;;;;;;;22.74;100.00;101137.22;4941012;29;20031;-80
2022/07/07 06:32:19;;;;;;;16.55;4.47;;;;;;;21.44;100.00;101147.53;4939086;29;20440;-80
2022/07/07 06:35:05;;;;;;;17.42;6.20;;;;;;;20.89;100.00;101144.31;4938938;29;20031;-81
2022/07/07 06:37:52;;;;;;;10.02;4.55;;;;;;;20.50;100.00;101138.44;4937962;29;20039;-81
2022/07/07 06:40:38;;;;;;;8.98;6.10;;;;;;;20.69;100.00;101148.97;4938415;29;20032;-81
2022/07/07 06:43:25;;;;;;;10.57;4.95;;;;;;;20.68;100.00;101156.09;4939064;29;20059;-81
2022/07/07 06:46:11;;;;;;;6.20;4.55;;;;;;;20.52;100.00;101154.28;4942113;29;20024;-81
2022/07/07 06:48:57;;;;;;;12.43;8.50;;;;;;;20.64;100.00;101151.00;4948161;29;20024;-82
2022/07/07 06:51:43;;;;;;;8.75;5.68;;;;;;;20.63;100.00;101151.94;4940892;29;20048;-75
2022/07/07 06:54:29;;;;;;;6.95;4.93;;;;;;;20.59;100.00;101155.69;4937858;29;20106;-76
2022/07/07 06:57:15;;;;;;;6.55;3.92;;;;;;;20.66;100.00;101135.81;4938022;29;20028;-75
2022/07/07 07:00:02;;;;;;;5.90;4.30;;;;;;;20.66;100.00;101133.16;4937239;29;20501;-75
2022/07/07 07:02:49;;;;;;;7.25;4.68;;;;;;;20.81;100.00;101129.69;4937775;29;20406;-75
2022/07/07 07:05:34;;;;;;;6.07;4.18;;;;;;;20.75;100.00;101117.56;4937125;29;20403;-76
2022/07/07 07:08:20;;;;;;;8.00;4.78;;;;;;;20.37;100.00;101116.00;4925121;28;20130;-76
2022/07/07 07:11:06;;;;;;;5.10;4.60;;;;;;;20.14;100.00;101105.69;4937482;29;20366;-76
2022/07/07 07:13:52;;;;;;;7.85;5.20;;;;;;;20.37;100.00;101100.03;4937655;29;20382;-76
2022/07/07 07:16:38;;;;;;;7.97;6.05;;;;;;;20.55;100.00;101100.91;4924591;29;20367;-76
2022/07/07 07:19:23;;;;;;;7.30;5.30;;;;;;;20.59;100.00;101097.13;4937115;29;20028;-76
2022/07/07 07:22:09;;;;;;;7.05;5.95;;;;;;;20.66;100.00;101111.84;4937687;29;20068;-75
2022/07/07 07:24:55;;;;;;;8.68;5.50;;;;;;;20.61;100.00;101117.41;4936978;29;20055;-76
2022/07/07 07:27:41;;;;;;;9.80;5.15;;;;;;;20.51;100.00;101126.81;4924342;29;20114;-76
2022/07/07 07:30:27;;;;;;;12.10;6.45;;;;;;;20.90;100.00;101135.38;4938906;29;20054;-75
2022/07/07 07:33:12;;;;;;;9.43;5.75;;;;;;;20.92;100.00;101128.22;4941275;29;20031;-75
2022/07/07 07:35:58;;;;;;;6.63;5.10;;;;;;;20.51;100.00;101110.84;4928452;28;20039;-75
2022/07/07 07:38:44;;;;;;;10.27;5.70;;;;;;;20.94;100.00;101112.97;4941420;29;20370;-75
2022/07/07 07:41:30;;;;;;;7.85;5.10;;;;;;;21.09;100.00;101114.00;4927455;29;20027;-75
2022/07/07 07:45:09;;;;;;;8.93;6.03;;;;;;;21.05;100.00;101113.28;4940477;29;20027;-75
2022/07/07 07:47:22;;;;;;;7.10;5.03;;;;;;;20.86;100.00;101103.66;4940579;29;20032;-76
2022/07/07 07:50:11;;;;;;;5.88;4.40;;;;;;;20.24;100.00;101093.63;4940838;29;20043;-76
2022/07/07 07:55:35;;;;;;;8.00;4.82;;;;;;;19.56;100.00;101090.00;5079584;23;20492;-75
2022/07/07 07:58:21;;;;;;;6.47;5.50;;;;;;;20.15;100.00;101091.44;4978789;28;20086;-72
2022/07/07 08:01:07;;;;;;;8.20;5.72;;;;;;;20.19;100.00;101086.81;4965130;28;20505;-72
2022/07/07 08:03:53;;;;;;;7.57;6.05;;;;;;;20.45;100.00;101097.00;4965149;28;20121;-72
2022/07/07 08:06:39;;;;;;;7.07;5.55;;;;;;;20.31;100.00;101096.84;4978753;28;20365;-73
2022/07/07 08:09:26;;;;;;;8.40;5.38;;;;;;;20.46;100.00;101096.94;4965934;28;20069;-73
2022/07/07 08:12:12;;;;;;;8.27;6.07;;;;;;;20.51;100.00;101096.66;4978705;28;20026;-74
2022/07/07 08:14:58;;;;;;;12.60;9.90;;;;;;;20.88;100.00;101097.31;4978706;28;20039;-72
2022/07/07 08:17:44;;;;;;;10.68;7.63;;;;;;;21.08;100.00;101110.44;4978947;28;20022;-72
2022/07/07 08:20:30;;;;;;;13.15;10.32;;;;;;;21.41;100.00;101103.25;4979394;28;20031;-72
2022/07/07 08:23:16;;;;;;;8.35;5.80;;;;;;;21.32;100.00;101095.78;4978148;28;20027;-73
2022/07/07 08:26:02;;;;;;;12.98;7.03;;;;;;;21.21;100.00;101103.50;4978826;28;20438;-72
2022/07/07 08:28:47;;;;;;;12.73;6.75;;;;;;;21.31;100.00;101099.41;4979650;28;20058;-72
2022/07/07 08:31:33;;;;;;;12.35;6.13;;;;;;;21.43;100.00;101098.72;4978115;28;20034;-74
2022/07/07 08:34:19;;;;;;;10.55;5.60;;;;;;;21.55;100.00;101100.69;4978131;28;20380;-72
2022/07/07 08:37:05;;;;;;;11.15;6.50;;;;;;;21.56;100.00;101107.75;4978765;28;20465;-72
2022/07/07 08:39:51;;;;;;;11.40;7.28;;;;;;;21.83;100.00;101106.19;4978539;28;20169;-72
2022/07/07 08:42:37;;;;;;;9.88;6.40;;;;;;;21.89;100.00;101105.84;4964498;28;20042;-71
2022/07/07 08:45:23;;;;;;;10.65;6.82;;;;;;;22.11;100.00;101106.31;4978113;28;20049;-71
2022/07/07 08:48:09;;;;;;;12.43;6.25;;;;;;;21.53;100.00;101107.91;4977874;28;20041;-70
2022/07/07 08:50:55;;;;;;;8.93;6.65;;;;;;;21.96;100.00;101114.34;4964777;28;20041;-70
2022/07/07 08:53:44;;;;;;;8.70;6.47;;;;;;;22.07;100.00;101115.44;4977755;28;20031;-70
2022/07/07 08:56:31;;;;;;;12.70;8.18;;;;;;;22.76;100.00;101121.09;4978127;28;20342;-72
2022/07/07 08:59:18;;;;;;;8.27;6.30;;;;;;;22.84;100.00;101126.81;4965615;28;20113;-71
2022/07/07 09:02:04;;;;;;;14.65;6.30;;;;;;;23.03;100.00;101127.41;4978277;28;20033;-72
2022/07/07 09:04:51;;;;;;;8.75;4.82;;;;;;;23.55;100.00;101123.19;4965007;28;20023;-72
2022/07/07 09:07:53;;;;;;;5.38;4.43;;;;;;;23.70;100.00;101126.69;4964653;28;20022;-71
2022/07/07 09:10:42;;;;;;;7.25;4.90;;;;;;;23.80;100.00;101135.81;4978062;28;20030;-71
2022/07/07 09:13:33;;;;;;;6.88;3.60;;;;;;;23.05;100.00;101139.72;4964342;28;20457;-72
2022/07/07 09:16:18;;;;;;;5.70;3.17;;;;;;;23.40;100.00;101134.88;4977958;28;20031;-72
2022/07/07 09:19:20;;;;;;;3.42;2.67;;;;;;;23.39;100.00;101139.34;4976839;28;20487;-72
2022/07/07 09:22:06;;;;;;;8.07;3.30;;;;;;;23.77;100.00;101136.88;4977855;28;20031;-72
2022/07/07 09:24:54;;;;;;;4.72;3.22;;;;;;;23.86;100.00;101143.47;4977916;28;20043;-73
2022/07/07 09:28:06;;;;;;;12.82;7.30;;;;;;;24.02;100.00;101144.22;4977935;28;20038;-71
2022/07/07 09:30:53;;;;;;;14.98;3.33;;;;;;;23.96;100.00;101147.28;4977577;28;20031;-72
2022/07/07 09:33:39;;;;;;;3.88;2.50;;;;;;;24.27;100.00;101144.28;4977845;28;20035;-72
2022/07/07 09:39:42;;;;;;;3.00;2.22;;;;;;;24.14;100.00;101149.59;4977278;28;20057;-72
2022/07/07 09:42:32;;;;;;;4.03;2.38;;;;;;;23.61;100.00;101152.22;4963383;28;20027;-72
2022/07/07 09:45:18;;;;;;;2.83;2.15;;;;;;;23.24;100.00;101147.50;4976776;28;20027;-72
2022/07/07 09:48:10;;;;;;;4.63;2.72;;;;;;;23.59;100.00;101139.91;4976373;28;20038;-71
2022/07/07 09:51:29;;;;;;;3.42;2.60;;;;;;;23.95;100.00;101145.56;4977157;28;20464;-72
2022/07/07 09:54:16;;;;;;;4.20;2.65;;;;;;;24.60;100.00;101148.22;4976697;28;20093;-71
2022/07/07 09:57:01;;;;;;;4.45;2.47;;;;;;;23.67;100.00;101145.63;4977318;28;20035;-71
2022/07/07 09:59:47;;;;;;;4.88;2.80;;;;;;;24.44;100.00;101142.19;4976590;28;20131;-71
2022/07/07 10:02:36;;;;;;;4.05;2.50;;;;;;;24.61;100.00;101152.66;4976731;28;20026;-71
2022/07/07 10:05:23;;;;;;;18.40;15.63;;;;;;;24.51;100.00;101148.00;4975714;28;20038;-71
2022/07/07 10:08:09;;;;;;;7.95;4.60;;;;;;;24.76;100.00;101151.59;4976404;28;20035;-70
2022/07/07 10:10:55;;;;;;;8.70;6.68;;;;;;;25.11;100.00;101149.97;4976971;28;20034;-71
2022/07/07 10:13:48;;;;;;;4.28;3.08;;;;;;;25.21;100.00;101151.06;4976141;28;20027;-71
2022/07/07 10:16:36;;;;;;;5.70;3.00;;;;;;;25.47;100.00;101151.91;4977621;28;20026;-71
2022/07/07 10:19:25;;;;;;;4.10;2.40;;;;;;;24.62;100.00;101149.00;4976254;28;20165;-71
2022/07/07 10:22:13;;;;;;;7.55;3.17;;;;;;;24.40;100.00;101153.22;4975686;28;20452;-71
2022/07/07 10:25:00;;;;;;;2.55;2.30;;;;;;;24.96;100.00;101151.06;4975988;28;20365;-71
2022/07/07 10:27:52;;;;;;;3.00;2.40;;;;;;;25.31;100.00;101154.81;4976945;28;20031;-72
2022/07/07 10:30:38;;;;;;;3.88;2.60;;;;;;;24.79;100.00;101155.91;4962581;28;20342;-72
2022/07/07 10:33:24;;;;;;;3.22;2.40;;;;;;;24.43;100.00;101169.09;4963523;28;20160;-72
2022/07/07 10:36:11;;;;;;;4.45;2.47;;;;;;;24.66;100.00;101160.34;4975457;28;20022;-71
2022/07/07 10:38:57;;;;;;;7.63;3.22;;;;;;;24.50;100.00;101156.97;4976380;28;20037;-71
2022/07/07 10:42:01;;;;;;;10.20;3.28;;;;;;;24.44;100.00;101149.38;4975800;28;20031;-71
2022/07/07 10:44:51;;;;;;;10.40;3.47;;;;;;;24.93;100.00;101145.94;4975384;28;20060;-72
2022/07/07 10:47:37;;;;;;;13.68;3.85;;;;;;;24.86;100.00;101155.34;4976160;28;20031;-72
2022/07/07 10:50:28;;;;;;;4.63;2.42;;;;;;;24.79;100.00;101156.72;4976836;28;20046;-71
2022/07/07 10:53:29;;;;;;;3.72;2.38;;;;;;;25.48;100.00;101153.63;4976090;28;20125;-71
2022/07/07 10:56:15;;;;;;;9.70;3.20;;;;;;;25.55;100.00;101153.06;4961971;28;20039;-71
2022/07/07 10:59:01;;;;;;;6.47;3.17;;;;;;;25.31;100.00;101148.63;4975649;28;20022;-70
2022/07/07 11:02:02;;;;;;;4.70;2.33;;;;;;;25.11;100.00;101154.50;4962635;28;20034;-71
2022/07/07 11:04:47;;;;;;;6.63;2.85;;;;;;;24.98;100.00;101149.13;4961799;28;20456;-72
2022/07/07 11:07:33;;;;;;;5.35;2.85;;;;;;;24.61;100.00;101143.75;4975961;28;20062;-71
2022/07/07 11:10:19;;;;;;;7.07;2.40;;;;;;;24.90;100.00;101148.81;4975632;28;20046;-71
2022/07/07 11:13:16;;;;;;;6.65;2.50;;;;;;;24.25;100.00;101151.56;4975230;28;20371;-72
2022/07/07 11:16:19;;;;;;;5.07;1.98;;;;;;;24.12;100.00;101139.94;4975641;28;20106;-71
2022/07/07 11:19:06;;;;;;;4.97;1.73;;;;;;;23.63;100.00;101144.09;4961970;28;20030;-71
2022/07/07 11:21:55;;;;;;;5.38;2.55;;;;;;;24.07;100.00;101134.88;4962648;28;20038;-71
2022/07/07 11:24:41;;;;;;;5.78;2.55;;;;;;;25.04;100.00;101145.16;4975999;28;20030;-72
2022/07/07 11:27:28;;;;;;;6.38;2.33;;;;;;;25.45;100.00;101159.19;4975277;28;20135;-74
2022/07/07 11:30:14;;;;;;;3.05;2.05;;;;;;;24.93;100.00;101153.97;4975244;28;20027;-73
2022/07/07 11:33:01;;;;;;;2.92;1.70;;;;;;;24.89;100.00;101154.28;4962380;28;20054;-73
2022/07/07 11:35:47;;;;;;;4.97;1.92;;;;;;;25.52;100.00;101152.44;4976572;28;20031;-74
2022/07/07 11:38:32;;;;;;;1.98;1.77;;;;;;;24.76;100.00;101148.06;4962071;28;20093;-73
2022/07/07 11:41:18;;;;;;;3.83;1.90;;;;;;;25.05;100.00;101153.09;4976575;28;20082;-73
2022/07/07 11:44:04;;;;;;;6.03;2.20;;;;;;;25.02;100.00;101161.34;4962624;28;20054;-74
2022/07/07 11:46:51;;;;;;;2.40;2.10;;;;;;;24.85;100.00;101156.31;4961980;28;20361;-74
2022/07/07 11:49:37;;;;;;;5.13;2.00;;;;;;;24.59;100.00;101159.06;4975742;28;20041;-74
2022/07/07 11:52:24;;;;;;;5.25;1.90;;;;;;;24.53;100.00;101152.28;4962490;28;20120;-74
2022/07/07 11:55:11;;;;;;;4.75;2.30;;;;;;;24.04;100.00;101156.53;4974923;28;20047;-72
2022/07/07 11:57:59;;;;;;;4.53;2.25;;;;;;;24.03;100.00;101159.31;4975649;28;20027;-74
2022/07/07 12:00:45;;;;;;;2.17;1.83;;;;;;;24.00;100.00;101157.69;4962530;28;20042;-74
2022/07/07 12:03:34;;;;;;;5.03;2.30;;;;;;;24.68;100.00;101156.63;4962192;28;20023;-74
2022/07/07 12:06:24;;;;;;;3.25;2.30;;;;;;;24.71;100.00;101160.94;4961680;28;20361;-74
2022/07/07 12:09:11;;;;;;;4.65;2.60;;;;;;;24.90;100.00;101155.97;4975817;28;20026;-72
2022/07/07 12:11:57;;;;;;;4.72;2.03;;;;;;;24.89;100.00;101155.16;4960840;28;20085;-73
2022/07/07 12:14:43;;;;;;;5.43;1.80;;;;;;;24.74;100.00;101158.88;4979257;28;20035;-73
2022/07/07 12:17:38;;;;;;;3.20;1.77;;;;;;;24.21;100.00;101158.06;4982370;28;20019;-73
2022/07/07 12:20:24;;;;;;;5.93;1.80;;;;;;;23.77;100.00;101160.97;4967583;28;20033;-74
2022/07/07 12:23:17;;;;;;;3.33;2.08;;;;;;;23.84;100.00;101145.38;4967796;28;20054;-74
2022/07/07 12:26:07;;;;;;;2.67;1.92;;;;;;;23.17;100.00;101147.00;4988636;28;20035;-72
2022/07/07 12:28:59;;;;;;;2.15;1.90;;;;;;;23.64;100.00;101149.34;4979585;28;20026;-73
2022/07/07 12:31:46;;;;;;;2.88;2.15;;;;;;;23.39;100.00;101157.22;4979211;28;20475;-72
2022/07/07 12:34:38;;;;;;;3.08;1.90;;;;;;;23.09;100.00;101154.63;4988596;28;20026;-73
2022/07/07 12:37:41;;;;;;;3.75;1.92;;;;;;;23.14;100.00;101151.66;4992019;28;20023;-72
2022/07/07 12:40:29;;;;;;;5.97;2.53;;;;;;;23.07;100.00;101148.50;4990515;28;20031;-72
2022/07/07 12:43:14;;;;;;;6.53;2.30;;;;;;;22.98;100.00;101157.09;4988305;28;20102;-73
2022/07/07 12:46:10;;;;;;;5.63;2.50;;;;;;;22.60;100.00;101155.91;4988549;28;20045;-75
2022/07/07 12:48:59;;;;;;;4.07;2.20;;;;;;;22.02;100.00;101151.38;4978205;28;20030;-75
2022/07/07 12:51:45;;;;;;;4.00;2.15;;;;;;;22.53;100.00;101151.00;4979444;28;20026;-74
2022/07/07 12:54:31;;;;;;;8.23;2.50;;;;;;;22.72;100.00;101151.63;4978921;28;20138;-75